Terminal Aerodrome Forecast
Issued by NWS

Home | Current Version | Previous Version | Text Only | Print | Product List | Glossary On
Versions: 1 2 3 4 5 6 7 8 9 10 11 12 13 14 15 16 17 18 19 20 21 22 23 24 25
309
FTUS44 KTSA 262325
TAFXNA
TAF
KXNA 262325Z 2700/2724 17012KT P6SM SCT040 BKN250
      TEMPO 2700/2702 16020G28KT
     FM270400 16011KT P6SM BKN020
     FM270900 17009KT P6SM OVC012
     FM271600 17011G20KT P6SM OVC020 PROB30 2716/2722 4SM -TSRA
      BKN007CB
     FM272200 16012G22KT P6SM VCTS OVC025CB
      TEMPO 2722/2724 2SM +TSRA OVC015CB=

USA.gov is the U.S. government's official web portal to all federal, state and local government web resources and services.